sim
Sign-in with your pilot id or email,
or register
Callsign
Passwort

Schedule Details

Flight Number: RYR1884 (1)
Departure: London Stansted Airport (EGSS) at 09:55
Arrival: Lisbon Humberto Delgado Airport (LPPT) at 12:45
Route: Ryanair Passenger Schedule. Enter filed route here before submitting Pirep.

Weather Information
Getting current METAR information for EGSS 241450Z AUTO 11011KT 1900 -SN BKN004 BKN009 OVC035 01/00 Q0994
Getting current METAR information for LPPT 241500Z 22011KT 9999 FEW010 BKN018 15/13 Q1018

Schedule Frequency

Route Map